Craigsville, WV

3:43 PM EDT on September 25, 2016 (GMT -0400)
The Family Center | | Change Station

Elev 2192 ft 38.22 °N, 80.53 °W | Updated 3 minutes ago

Mostly Cloudy
Mostly Cloudy
83.2 °F
Feels Like 84 °F
N
8.0
Wind Variable Wind from ENE
Gusts 9.0 mph

Today
High -- | Low -- °F
--% Chance of Precip.
Yesterday
High -- | Low -- °F
Precip. -- in
Pressure 30.12 in
Visibility 10.0 miles
Clouds Mostly Cloudy 7500 ft
Heat Index 84 °F
Dew Point 62 °F
Humidity 49%
Rainfall 0.00 in
Snow Depth Not available.
7:13 AM 7:14 PM
Waning Crescent, 25% visible
METAR KLWB 251935Z AUTO 24004KT 10SM BKN075 27/15 A3012 RMK AO2 T02690153
Pressure 30.12 in
Visibility 10.0 miles
Clouds Mostly Cloudy 7500 ft
Heat Index 84 °F
Dew Point 62 °F
Humidity 49%
Rainfall 0.00 in
Snow Depth Not available.
7:13 AM 7:14 PM
Waning Crescent, 25% visible
METAR KLWB 251935Z AUTO 24004KT 10SM BKN075 27/15 A3012 RMK AO2 T02690153

10-Day Weather Forecast

Almanac

Astronomy

Sep. 25, 2016 Rise Set
Actual Time
Civil Twilight
Nautical Twilight
Astronomical Twilight
Moon
Length of Visible Light
Length of Day
Tomorrow will be .
, % of the Moon is Illuminated

Today's Extremes

State Highs State Lows

Community

WunderPhotos

Upload Photos

1,941,708 photos uploaded!

WunderBlog® & News

Nearby

Air Quality

  Air Quality AQ Index Pollutant
Not available.

Snow Depth

Station Depth Elevation

Earthquake Activity

City Distance Mag. Time & Date
Minimum magnitude displayed is 2.5.

Coastal Water Temperatures

Place Temperature

Stations

Nearby Weather Stations

Station Location Temp. Windchill Dew Point Humidity Wind Precip. Elev Updated Type
                   

Watches & Warnings

There are currently no watches in effect.